sensor_id;sensor_type;location;lat;lon;timestamp;pressure;altitude;pressure_sealevel;temperature;humidity
79142;BME280;68550;-26.480;29.234;2023-09-18T00:00:40;84488.26;;;23.30;28.74
79142;BME280;68550;-26.480;29.234;2023-09-18T00:03:05;84487.53;;;22.93;28.71
79142;BME280;68550;-26.480;29.234;2023-09-18T00:05:31;84488.05;;;23.22;28.76
79142;BME280;68550;-26.480;29.234;2023-09-18T00:07:56;84486.70;;;23.19;28.69
79142;BME280;68550;-26.480;29.234;2023-09-18T00:10:21;84485.45;;;23.44;28.83
79142;BME280;68550;-26.480;29.234;2023-09-18T00:12:51;84480.56;;;23.47;28.57
79142;BME280;68550;-26.480;29.234;2023-09-18T00:15:12;84481.05;;;23.18;28.58
79142;BME280;68550;-26.480;29.234;2023-09-18T00:17:38;84480.70;;;23.30;28.72
79142;BME280;68550;-26.480;29.234;2023-09-18T00:20:05;84481.34;;;23.26;28.50
79142;BME280;68550;-26.480;29.234;2023-09-18T00:22:29;84479.28;;;22.97;28.57
79142;BME280;68550;-26.480;29.234;2023-09-18T00:24:55;84474.32;;;23.13;28.66
79142;BME280;68550;-26.480;29.234;2023-09-18T00:27:20;84473.11;;;23.19;28.68
79142;BME280;68550;-26.480;29.234;2023-09-18T00:29:46;84468.88;;;23.07;28.81
79142;BME280;68550;-26.480;29.234;2023-09-18T00:32:11;84469.06;;;23.05;28.98
79142;BME280;68550;-26.480;29.234;2023-09-18T00:34:37;84469.15;;;22.95;28.92
79142;BME280;68550;-26.480;29.234;2023-09-18T00:37:02;84469.17;;;22.98;28.89
79142;BME280;68550;-26.480;29.234;2023-09-18T00:39:27;84467.90;;;23.14;28.99
79142;BME280;68550;-26.480;29.234;2023-09-18T00:41:53;84468.26;;;22.88;28.84
79142;BME280;68550;-26.480;29.234;2023-09-18T00:44:18;84465.56;;;22.97;28.88
79142;BME280;68550;-26.480;29.234;2023-09-18T00:46:43;84465.98;;;22.97;28.80
79142;BME280;68550;-26.480;29.234;2023-09-18T00:49:10;84464.37;;;23.01;28.72
79142;BME280;68550;-26.480;29.234;2023-09-18T00:51:35;84465.82;;;23.30;28.93
79142;BME280;68550;-26.480;29.234;2023-09-18T00:54:00;84466.50;;;23.05;28.70
79142;BME280;68550;-26.480;29.234;2023-09-18T00:56:25;84462.19;;;22.92;28.97
79142;BME280;68550;-26.480;29.234;2023-09-18T00:58:53;84462.06;;;22.94;28.78
79142;BME280;68550;-26.480;29.234;2023-09-18T01:04:07;84469.33;;;21.54;30.84
79142;BME280;68550;-26.480;29.234;2023-09-18T01:06:32;84466.17;;;21.96;30.42
79142;BME280;68550;-26.480;29.234;2023-09-18T01:08:57;84465.20;;;22.25;29.83
79142;BME280;68550;-26.480;29.234;2023-09-18T01:21:06;84458.63;;;22.68;28.84
79142;BME280;68550;-26.480;29.234;2023-09-18T01:23:29;84456.94;;;23.10;28.75
79142;BME280;68550;-26.480;29.234;2023-09-18T01:25:54;84455.13;;;22.82;28.73
79142;BME280;68550;-26.480;29.234;2023-09-18T01:28:20;84457.81;;;22.86;28.64
79142;BME280;68550;-26.480;29.234;2023-09-18T01:30:45;84461.93;;;23.00;28.82
79142;BME280;68550;-26.480;29.234;2023-09-18T01:33:12;84458.21;;;23.03;28.77
79142;BME280;68550;-26.480;29.234;2023-09-18T01:35:40;84453.68;;;23.11;28.62
79142;BME280;68550;-26.480;29.234;2023-09-18T01:38:03;84453.63;;;22.81;28.77
79142;BME280;68550;-26.480;29.234;2023-09-18T01:40:28;84450.06;;;22.94;28.84
79142;BME280;68550;-26.480;29.234;2023-09-18T01:42:53;84450.94;;;23.10;28.72
79142;BME280;68550;-26.480;29.234;2023-09-18T01:45:19;84451.44;;;22.72;28.89
79142;BME280;68550;-26.480;29.234;2023-09-18T01:47:47;84452.01;;;22.81;28.87
79142;BME280;68550;-26.480;29.234;2023-09-18T01:50:11;84451.99;;;22.86;28.94
79142;BME280;68550;-26.480;29.234;2023-09-18T01:52:35;84453.41;;;22.80;28.99
79142;BME280;68550;-26.480;29.234;2023-09-18T01:57:30;84452.21;;;22.66;28.88
79142;BME280;68550;-26.480;29.234;2023-09-18T02:07:07;84450.18;;;23.01;28.70
79142;BME280;68550;-26.480;29.234;2023-09-18T02:09:33;84451.10;;;22.68;28.81
79142;BME280;68550;-26.480;29.234;2023-09-18T02:12:01;84450.35;;;22.48;28.68
79142;BME280;68550;-26.480;29.234;2023-09-18T02:31:23;84458.87;;;22.44;28.63
79142;BME280;68550;-26.480;29.234;2023-09-18T02:38:39;84459.65;;;22.79;28.45
79142;BME280;68550;-26.480;29.234;2023-09-18T02:41:04;84462.68;;;22.43;28.37
79142;BME280;68550;-26.480;29.234;2023-09-18T02:48:35;84467.02;;;22.91;28.71
79142;BME280;68550;-26.480;29.234;2023-09-18T02:50:47;84469.46;;;22.74;28.41
79142;BME280;68550;-26.480;29.234;2023-09-18T02:53:18;84469.68;;;22.70;28.77
79142;BME280;68550;-26.480;29.234;2023-09-18T02:55:38;84467.29;;;22.74;28.82
79142;BME280;68550;-26.480;29.234;2023-09-18T02:58:04;84469.91;;;22.20;28.79
79142;BME280;68550;-26.480;29.234;2023-09-18T03:02:43;84476.07;;;22.22;29.04
79142;BME280;68550;-26.480;29.234;2023-09-18T03:07:34;84472.78;;;22.38;28.79
79142;BME280;68550;-26.480;29.234;2023-09-18T03:10:00;84474.77;;;22.51;28.61
79142;BME280;68550;-26.480;29.234;2023-09-18T03:12:26;84472.29;;;22.71;28.57
79142;BME280;68550;-26.480;29.234;2023-09-18T03:14:51;84474.02;;;22.72;28.62
79142;BME280;68550;-26.480;29.234;2023-09-18T03:17:17;84475.77;;;22.67;28.67
79142;BME280;68550;-26.480;29.234;2023-09-18T03:19:41;84476.54;;;22.72;28.62
79142;BME280;68550;-26.480;29.234;2023-09-18T03:22:07;84480.33;;;22.50;28.67
79142;BME280;68550;-26.480;29.234;2023-09-18T03:24:35;84487.19;;;22.64;28.87
79142;BME280;68550;-26.480;29.234;2023-09-18T03:26:58;84488.70;;;22.31;28.85
79142;BME280;68550;-26.480;29.234;2023-09-18T03:29:26;84490.43;;;22.63;28.81
79142;BME280;68550;-26.480;29.234;2023-09-18T03:31:50;84491.70;;;22.47;28.97
79142;BME280;68550;-26.480;29.234;2023-09-18T03:34:15;84491.83;;;22.68;29.03
79142;BME280;68550;-26.480;29.234;2023-09-18T03:36:41;84493.71;;;22.44;29.03
79142;BME280;68550;-26.480;29.234;2023-09-18T03:39:06;84495.12;;;22.75;28.96
79142;BME280;68550;-26.480;29.234;2023-09-18T03:41:33;84496.11;;;22.39;29.03
79142;BME280;68550;-26.480;29.234;2023-09-18T03:43:57;84495.90;;;22.42;28.99
79142;BME280;68550;-26.480;29.234;2023-09-18T03:46:23;84500.19;;;22.37;29.06
79142;BME280;68550;-26.480;29.234;2023-09-18T03:48:49;84499.73;;;22.58;29.10
79142;BME280;68550;-26.480;29.234;2023-09-18T03:51:14;84501.61;;;22.42;29.23
79142;BME280;68550;-26.480;29.234;2023-09-18T03:53:40;84504.96;;;22.26;29.06
79142;BME280;68550;-26.480;29.234;2023-09-18T03:56:07;84505.35;;;22.26;29.04
79142;BME280;68550;-26.480;29.234;2023-09-18T03:58:31;84509.93;;;22.23;29.13
79142;BME280;68550;-26.480;29.234;2023-09-18T04:00:57;84509.76;;;22.24;29.08
79142;BME280;68550;-26.480;29.234;2023-09-18T04:03:22;84511.42;;;22.33;28.94
79142;BME280;68550;-26.480;29.234;2023-09-18T04:05:47;84513.73;;;22.24;29.02
79142;BME280;68550;-26.480;29.234;2023-09-18T04:08:13;84518.67;;;22.43;28.93
79142;BME280;68550;-26.480;29.234;2023-09-18T04:10:41;84520.03;;;22.34;28.85
79142;BME280;68550;-26.480;29.234;2023-09-18T04:13:04;84523.79;;;22.32;28.87
79142;BME280;68550;-26.480;29.234;2023-09-18T04:15:30;84524.64;;;22.23;28.83
79142;BME280;68550;-26.480;29.234;2023-09-18T04:17:55;84522.04;;;22.23;28.87
79142;BME280;68550;-26.480;29.234;2023-09-18T04:20:21;84527.36;;;22.25;28.86
79142;BME280;68550;-26.480;29.234;2023-09-18T04:22:47;84527.86;;;22.36;28.81
79142;BME280;68550;-26.480;29.234;2023-09-18T04:25:13;84531.77;;;22.17;28.93
79142;BME280;68550;-26.480;29.234;2023-09-18T04:27:39;84533.46;;;22.44;28.88
79142;BME280;68550;-26.480;29.234;2023-09-18T04:30:04;84537.11;;;22.31;28.69
79142;BME280;68550;-26.480;29.234;2023-09-18T04:32:29;84538.74;;;22.48;28.92
79142;BME280;68550;-26.480;29.234;2023-09-18T04:34:55;84543.98;;;22.48;28.93
79142;BME280;68550;-26.480;29.234;2023-09-18T04:37:20;84551.62;;;22.31;28.81
79142;BME280;68550;-26.480;29.234;2023-09-18T04:39:45;84552.31;;;22.52;28.82
79142;BME280;68550;-26.480;29.234;2023-09-18T04:42:10;84554.91;;;22.53;28.85
79142;BME280;68550;-26.480;29.234;2023-09-18T04:44:35;84553.64;;;22.45;28.97
79142;BME280;68550;-26.480;29.234;2023-09-18T04:47:04;84556.83;;;22.20;28.93
79142;BME280;68550;-26.480;29.234;2023-09-18T04:49:26;84557.96;;;22.48;28.93
79142;BME280;68550;-26.480;29.234;2023-09-18T04:51:52;84560.96;;;22.24;28.91
79142;BME280;68550;-26.480;29.234;2023-09-18T04:54:17;84563.70;;;22.30;28.78
79142;BME280;68550;-26.480;29.234;2023-09-18T04:56:42;84564.71;;;22.18;29.03
79142;BME280;68550;-26.480;29.234;2023-09-18T04:59:09;84565.24;;;22.17;29.09
79142;BME280;68550;-26.480;29.234;2023-09-18T05:01:34;84568.19;;;22.22;29.37
79142;BME280;68550;-26.480;29.234;2023-09-18T05:03:59;84571.83;;;22.49;29.26
79142;BME280;68550;-26.480;29.234;2023-09-18T05:06:25;84575.57;;;22.48;29.44
79142;BME280;68550;-26.480;29.234;2023-09-18T05:08:51;84578.87;;;22.38;29.22
79142;BME280;68550;-26.480;29.234;2023-09-18T05:11:16;84581.87;;;22.52;29.31
79142;BME280;68550;-26.480;29.234;2023-09-18T05:13:43;84582.89;;;22.25;29.27
79142;BME280;68550;-26.480;29.234;2023-09-18T05:16:07;84586.59;;;22.53;29.38
79142;BME280;68550;-26.480;29.234;2023-09-18T05:18:33;84590.21;;;22.37;29.43
79142;BME280;68550;-26.480;29.234;2023-09-18T05:20:58;84594.88;;;22.80;29.64
79142;BME280;68550;-26.480;29.234;2023-09-18T05:23:24;84593.50;;;22.33;29.69
79142;BME280;68550;-26.480;29.234;2023-09-18T05:25:49;84592.18;;;22.19;29.74
79142;BME280;68550;-26.480;29.234;2023-09-18T05:28:17;84587.50;;;22.28;29.78
79142;BME280;68550;-26.480;29.234;2023-09-18T05:30:40;84587.15;;;22.41;29.87
79142;BME280;68550;-26.480;29.234;2023-09-18T05:33:06;84586.01;;;22.60;29.83
79142;BME280;68550;-26.480;29.234;2023-09-18T05:35:31;84588.48;;;22.33;30.10
79142;BME280;68550;-26.480;29.234;2023-09-18T05:37:56;84586.15;;;22.35;29.94
79142;BME280;68550;-26.480;29.234;2023-09-18T05:40:23;84590.28;;;22.46;29.93
79142;BME280;68550;-26.480;29.234;2023-09-18T05:42:47;84594.52;;;22.25;30.15
79142;BME280;68550;-26.480;29.234;2023-09-18T05:45:14;84592.30;;;22.16;30.31
79142;BME280;68550;-26.480;29.234;2023-09-18T05:47:39;84595.34;;;22.25;30.23
79142;BME280;68550;-26.480;29.234;2023-09-18T05:50:04;84596.27;;;22.33;30.33
79142;BME280;68550;-26.480;29.234;2023-09-18T05:52:30;84601.38;;;22.58;30.17
79142;BME280;68550;-26.480;29.234;2023-09-18T05:54:56;84604.78;;;22.38;30.29
79142;BME280;68550;-26.480;29.234;2023-09-18T05:57:21;84605.15;;;22.33;30.30
79142;BME280;68550;-26.480;29.234;2023-09-18T05:59:46;84606.99;;;22.34;30.38
79142;BME280;68550;-26.480;29.234;2023-09-18T06:02:11;84606.99;;;22.23;30.47
79142;BME280;68550;-26.480;29.234;2023-09-18T06:04:39;84607.15;;;22.43;30.40
79142;BME280;68550;-26.480;29.234;2023-09-18T06:07:02;84608.78;;;22.35;30.45
79142;BME280;68550;-26.480;29.234;2023-09-18T06:09:27;84610.11;;;22.41;30.51
79142;BME280;68550;-26.480;29.234;2023-09-18T06:11:53;84614.08;;;22.39;30.57
79142;BME280;68550;-26.480;29.234;2023-09-18T06:14:19;84612.05;;;22.46;30.49
79142;BME280;68550;-26.480;29.234;2023-09-18T06:16:46;84613.18;;;22.51;30.60
79142;BME280;68550;-26.480;29.234;2023-09-18T06:19:10;84618.07;;;22.59;30.66
79142;BME280;68550;-26.480;29.234;2023-09-18T06:21:35;84620.15;;;22.53;30.77
79142;BME280;68550;-26.480;29.234;2023-09-18T06:24:01;84620.94;;;22.45;30.87
79142;BME280;68550;-26.480;29.234;2023-09-18T06:26:26;84623.61;;;22.48;30.74
79142;BME280;68550;-26.480;29.234;2023-09-18T06:28:52;84627.62;;;22.38;30.78
79142;BME280;68550;-26.480;29.234;2023-09-18T06:31:17;84632.67;;;22.49;30.91
79142;BME280;68550;-26.480;29.234;2023-09-18T06:33:43;84632.29;;;22.52;30.88
79142;BME280;68550;-26.480;29.234;2023-09-18T06:36:08;84633.24;;;22.47;30.88
79142;BME280;68550;-26.480;29.234;2023-09-18T06:38:34;84637.15;;;22.34;30.70
79142;BME280;68550;-26.480;29.234;2023-09-18T06:41:03;84638.72;;;22.46;30.63
79142;BME280;68550;-26.480;29.234;2023-09-18T06:43:24;84641.86;;;22.10;30.40
79142;BME280;68550;-26.480;29.234;2023-09-18T06:45:50;84642.39;;;22.30;31.03
79142;BME280;68550;-26.480;29.234;2023-09-18T06:48:18;84646.01;;;22.42;31.09
79142;BME280;68550;-26.480;29.234;2023-09-18T06:50:42;84644.83;;;22.82;31.20
79142;BME280;68550;-26.480;29.234;2023-09-18T06:53:08;84647.76;;;22.23;31.01
79142;BME280;68550;-26.480;29.234;2023-09-18T06:55:32;84649.39;;;22.82;30.59
79142;BME280;68550;-26.480;29.234;2023-09-18T06:57:58;84649.36;;;22.58;30.89
79142;BME280;68550;-26.480;29.234;2023-09-18T07:00:24;84649.07;;;22.42;30.69
79142;BME280;68550;-26.480;29.234;2023-09-18T07:02:49;84650.92;;;22.70;30.71
79142;BME280;68550;-26.480;29.234;2023-09-18T07:05:16;84652.59;;;22.67;30.64
79142;BME280;68550;-26.480;29.234;2023-09-18T07:07:41;84650.12;;;22.60;30.40
79142;BME280;68550;-26.480;29.234;2023-09-18T07:10:07;84648.29;;;22.41;30.45
79142;BME280;68550;-26.480;29.234;2023-09-18T07:12:31;84648.49;;;22.57;30.75
79142;BME280;68550;-26.480;29.234;2023-09-18T07:14:58;84647.29;;;22.54;30.80
79142;BME280;68550;-26.480;29.234;2023-09-18T07:17:25;84641.57;;;22.70;30.50
79142;BME280;68550;-26.480;29.234;2023-09-18T07:19:47;84648.70;;;22.47;30.65
79142;BME280;68550;-26.480;29.234;2023-09-18T07:22:13;84645.38;;;22.75;30.49
79142;BME280;68550;-26.480;29.234;2023-09-18T07:24:38;84646.44;;;22.26;30.45
79142;BME280;68550;-26.480;29.234;2023-09-18T07:27:04;84653.15;;;22.81;30.36
79142;BME280;68550;-26.480;29.234;2023-09-18T07:29:30;84647.20;;;22.78;30.52
79142;BME280;68550;-26.480;29.234;2023-09-18T07:31:55;84651.19;;;22.77;30.64
79142;BME280;68550;-26.480;29.234;2023-09-18T07:34:21;84651.85;;;22.78;30.45
79142;BME280;68550;-26.480;29.234;2023-09-18T07:36:46;84655.22;;;22.54;30.74
79142;BME280;68550;-26.480;29.234;2023-09-18T07:39:12;84658.36;;;22.21;30.83
79142;BME280;68550;-26.480;29.234;2023-09-18T07:41:37;84655.73;;;22.80;30.72
79142;BME280;68550;-26.480;29.234;2023-09-18T07:44:03;84655.32;;;22.74;30.88
79142;BME280;68550;-26.480;29.234;2023-09-18T07:46:29;84654.64;;;22.83;30.76
79142;BME280;68550;-26.480;29.234;2023-09-18T07:48:53;84655.05;;;22.81;30.71
79142;BME280;68550;-26.480;29.234;2023-09-18T07:51:19;84653.90;;;22.81;30.74
79142;BME280;68550;-26.480;29.234;2023-09-18T07:53:47;84655.36;;;22.57;30.91
79142;BME280;68550;-26.480;29.234;2023-09-18T07:56:10;84656.82;;;22.86;30.75
79142;BME280;68550;-26.480;29.234;2023-09-18T07:58:39;84655.97;;;22.83;30.60
79142;BME280;68550;-26.480;29.234;2023-09-18T08:01:01;84654.90;;;22.59;30.66
79142;BME280;68550;-26.480;29.234;2023-09-18T08:03:26;84656.87;;;22.91;30.78
79142;BME280;68550;-26.480;29.234;2023-09-18T08:05:53;84652.37;;;22.61;30.68
79142;BME280;68550;-26.480;29.234;2023-09-18T08:08:18;84655.27;;;22.80;30.86
79142;BME280;68550;-26.480;29.234;2023-09-18T08:10:43;84654.60;;;22.80;30.65
79142;BME280;68550;-26.480;29.234;2023-09-18T08:13:08;84651.76;;;22.62;30.68
79142;BME280;68550;-26.480;29.234;2023-09-18T08:15:33;84658.45;;;22.66;30.76
79142;BME280;68550;-26.480;29.234;2023-09-18T08:17:59;84657.56;;;22.57;30.59
79142;BME280;68550;-26.480;29.234;2023-09-18T08:20:26;84648.74;;;22.70;30.55
79142;BME280;68550;-26.480;29.234;2023-09-18T08:22:51;84649.48;;;22.87;30.64
79142;BME280;68550;-26.480;29.234;2023-09-18T08:25:17;84643.72;;;22.91;30.51
79142;BME280;68550;-26.480;29.234;2023-09-18T08:27:42;84640.62;;;22.94;30.59
79142;BME280;68550;-26.480;29.234;2023-09-18T08:30:07;84644.67;;;22.70;30.65
79142;BME280;68550;-26.480;29.234;2023-09-18T08:32:34;84641.68;;;22.99;30.72
79142;BME280;68550;-26.480;29.234;2023-09-18T08:34:58;84642.50;;;23.18;30.57
79142;BME280;68550;-26.480;29.234;2023-09-18T08:37:25;84637.60;;;23.00;30.47
79142;BME280;68550;-26.480;29.234;2023-09-18T08:39:48;84633.82;;;22.68;30.50
79142;BME280;68550;-26.480;29.234;2023-09-18T08:42:15;84626.98;;;23.06;30.60
79142;BME280;68550;-26.480;29.234;2023-09-18T08:44:39;84617.35;;;22.71;30.55
79142;BME280;68550;-26.480;29.234;2023-09-18T08:47:05;84615.82;;;23.14;30.12
79142;BME280;68550;-26.480;29.234;2023-09-18T08:49:31;84611.61;;;23.28;30.18
79142;BME280;68550;-26.480;29.234;2023-09-18T08:51:56;84613.34;;;23.03;30.10
79142;BME280;68550;-26.480;29.234;2023-09-18T08:54:22;84611.93;;;22.81;29.97
79142;BME280;68550;-26.480;29.234;2023-09-18T08:56:47;84606.40;;;22.81;30.30
79142;BME280;68550;-26.480;29.234;2023-09-18T08:59:13;84600.74;;;23.11;30.13
79142;BME280;68550;-26.480;29.234;2023-09-18T09:01:39;84600.04;;;23.13;30.35
79142;BME280;68550;-26.480;29.234;2023-09-18T09:04:03;84596.33;;;23.22;30.25
79142;BME280;68550;-26.480;29.234;2023-09-18T09:06:28;84593.24;;;22.91;30.32
79142;BME280;68550;-26.480;29.234;2023-09-18T09:08:53;84589.40;;;22.89;30.44
79142;BME280;68550;-26.480;29.234;2023-09-18T09:11:19;84586.70;;;22.90;30.33
79142;BME280;68550;-26.480;29.234;2023-09-18T09:13:46;84584.63;;;23.15;30.21
79142;BME280;68550;-26.480;29.234;2023-09-18T09:16:12;84575.94;;;22.87;30.23
79142;BME280;68550;-26.480;29.234;2023-09-18T09:18:36;84574.12;;;23.23;30.37
79142;BME280;68550;-26.480;29.234;2023-09-18T09:23:28;84568.03;;;23.24;30.30
79142;BME280;68550;-26.480;29.234;2023-09-18T09:25:53;84560.69;;;23.10;30.29
79142;BME280;68550;-26.480;29.234;2023-09-18T09:30:44;84555.00;;;23.06;30.19
79142;BME280;68550;-26.480;29.234;2023-09-18T09:33:12;84557.50;;;22.92;30.46
79142;BME280;68550;-26.480;29.234;2023-09-18T09:35:35;84553.16;;;22.92;30.44
79142;BME280;68550;-26.480;29.234;2023-09-18T09:38:01;84552.70;;;23.00;30.40
79142;BME280;68550;-26.480;29.234;2023-09-18T09:40:26;84544.03;;;23.06;30.37
79142;BME280;68550;-26.480;29.234;2023-09-18T09:42:53;84534.55;;;23.08;30.31
79142;BME280;68550;-26.480;29.234;2023-09-18T09:45:16;84537.47;;;23.10;30.43
79142;BME280;68550;-26.480;29.234;2023-09-18T09:47:42;84523.59;;;23.16;30.15
79142;BME280;68550;-26.480;29.234;2023-09-18T09:50:13;84527.31;;;23.45;30.23
79142;BME280;68550;-26.480;29.234;2023-09-18T09:52:34;84522.42;;;23.25;30.07
79142;BME280;68550;-26.480;29.234;2023-09-18T09:54:58;84507.22;;;23.68;30.15
79142;BME280;68550;-26.480;29.234;2023-09-18T09:57:24;84504.13;;;23.19;30.17
79142;BME280;68550;-26.480;29.234;2023-09-18T09:59:49;84500.59;;;23.47;30.11
79142;BME280;68550;-26.480;29.234;2023-09-18T10:02:15;84493.02;;;23.21;30.08
79142;BME280;68550;-26.480;29.234;2023-09-18T10:04:40;84492.50;;;23.60;29.87
79142;BME280;68550;-26.480;29.234;2023-09-18T10:07:07;84483.60;;;23.29;29.93
79142;BME280;68550;-26.480;29.234;2023-09-18T10:09:35;84478.09;;;23.38;29.87
79142;BME280;68550;-26.480;29.234;2023-09-18T10:11:58;84470.34;;;23.10;29.82
79142;BME280;68550;-26.480;29.234;2023-09-18T10:14:28;84470.61;;;23.38;29.88
79142;BME280;68550;-26.480;29.234;2023-09-18T10:16:51;84461.45;;;23.39;29.80
79142;BME280;68550;-26.480;29.234;2023-09-18T10:19:24;84460.02;;;23.39;29.95
79142;BME280;68550;-26.480;29.234;2023-09-18T10:21:44;84454.37;;;23.41;29.82
79142;BME280;68550;-26.480;29.234;2023-09-18T10:24:09;84445.94;;;23.42;29.83
79142;BME280;68550;-26.480;29.234;2023-09-18T10:26:30;84442.34;;;23.49;29.81
79142;BME280;68550;-26.480;29.234;2023-09-18T10:28:54;84438.70;;;23.50;29.75
79142;BME280;68550;-26.480;29.234;2023-09-18T10:31:19;84433.78;;;23.46;29.77
79142;BME280;68550;-26.480;29.234;2023-09-18T10:33:45;84430.46;;;23.52;29.66
79142;BME280;68550;-26.480;29.234;2023-09-18T10:36:10;84429.25;;;23.42;29.66
79142;BME280;68550;-26.480;29.234;2023-09-18T10:38:36;84424.30;;;23.59;29.60
79142;BME280;68550;-26.480;29.234;2023-09-18T10:41:03;84417.33;;;23.43;29.68
79142;BME280;68550;-26.480;29.234;2023-09-18T10:43:27;84415.69;;;23.42;29.77
79142;BME280;68550;-26.480;29.234;2023-09-18T10:45:53;84416.15;;;23.43;29.72
79142;BME280;68550;-26.480;29.234;2023-09-18T10:48:19;84415.09;;;23.45;29.66
79142;BME280;68550;-26.480;29.234;2023-09-18T10:50:44;84412.13;;;23.45;29.58
79142;BME280;68550;-26.480;29.234;2023-09-18T10:53:14;84405.51;;;23.47;29.62
79142;BME280;68550;-26.480;29.234;2023-09-18T10:55:34;84398.44;;;23.42;29.53
79142;BME280;68550;-26.480;29.234;2023-09-18T10:58:00;84399.92;;;23.35;29.64
79142;BME280;68550;-26.480;29.234;2023-09-18T11:00:28;84391.85;;;23.65;29.62
79142;BME280;68550;-26.480;29.234;2023-09-18T11:02:51;84386.56;;;23.62;29.66
79142;BME280;68550;-26.480;29.234;2023-09-18T11:05:31;84389.81;;;23.35;29.70
79142;BME280;68550;-26.480;29.234;2023-09-18T11:07:41;84382.24;;;23.54;29.58
79142;BME280;68550;-26.480;29.234;2023-09-18T11:12:42;84379.20;;;23.56;29.43
79142;BME280;68550;-26.480;29.234;2023-09-18T11:14:58;84380.80;;;23.48;29.51
79142;BME280;68550;-26.480;29.234;2023-09-18T11:17:34;84373.74;;;23.51;29.49
79142;BME280;68550;-26.480;29.234;2023-09-18T11:19:48;84373.45;;;23.50;29.35
79142;BME280;68550;-26.480;29.234;2023-09-18T11:22:14;84377.21;;;23.56;29.19
79142;BME280;68550;-26.480;29.234;2023-09-18T11:24:39;84372.31;;;23.44;29.50
79142;BME280;68550;-26.480;29.234;2023-09-18T11:27:04;84371.57;;;23.51;29.27
79142;BME280;68550;-26.480;29.234;2023-09-18T11:29:37;84359.43;;;23.64;29.09
79142;BME280;68550;-26.480;29.234;2023-09-18T11:31:57;84360.75;;;23.65;29.11
79142;BME280;68550;-26.480;29.234;2023-09-18T11:34:23;84355.47;;;23.64;29.17
79142;BME280;68550;-26.480;29.234;2023-09-18T11:36:46;84349.82;;;23.62;29.17
79142;BME280;68550;-26.480;29.234;2023-09-18T11:39:13;84346.60;;;23.53;29.25
79142;BME280;68550;-26.480;29.234;2023-09-18T11:41:41;84351.16;;;23.57;29.19
79142;BME280;68550;-26.480;29.234;2023-09-18T11:46:28;84342.15;;;23.57;29.15
79142;BME280;68550;-26.480;29.234;2023-09-18T11:48:55;84342.78;;;23.54;29.13
79142;BME280;68550;-26.480;29.234;2023-09-18T11:51:23;84331.71;;;23.57;29.13
79142;BME280;68550;-26.480;29.234;2023-09-18T11:53:47;84329.39;;;23.56;29.15
79142;BME280;68550;-26.480;29.234;2023-09-18T11:56:11;84324.56;;;23.62;28.97
79142;BME280;68550;-26.480;29.234;2023-09-18T12:01:05;84322.44;;;23.60;29.00
79142;BME280;68550;-26.480;29.234;2023-09-18T12:03:25;84319.72;;;23.54;29.08
79142;BME280;68550;-26.480;29.234;2023-09-18T12:05:53;84315.29;;;23.54;29.06
79142;BME280;68550;-26.480;29.234;2023-09-18T12:08:17;84318.14;;;23.43;29.16
79142;BME280;68550;-26.480;29.234;2023-09-18T12:10:41;84311.74;;;23.59;28.85
79142;BME280;68550;-26.480;29.234;2023-09-18T12:13:07;84303.22;;;23.53;28.87
79142;BME280;68550;-26.480;29.234;2023-09-18T12:15:31;84304.59;;;23.31;28.84
79142;BME280;68550;-26.480;29.234;2023-09-18T12:20:22;84281.90;;;23.58;28.89
79142;BME280;68550;-26.480;29.234;2023-09-18T12:22:49;84298.15;;;23.47;28.96
79142;BME280;68550;-26.480;29.234;2023-09-18T12:25:14;84295.91;;;23.67;28.56
79142;BME280;68550;-26.480;29.234;2023-09-18T12:27:39;84291.43;;;23.67;28.63
79142;BME280;68550;-26.480;29.234;2023-09-18T12:30:06;84294.08;;;23.43;28.58
79142;BME280;68550;-26.480;29.234;2023-09-18T12:32:30;84293.97;;;23.42;28.69
79142;BME280;68550;-26.480;29.234;2023-09-18T12:34:54;84290.78;;;23.76;28.58
79142;BME280;68550;-26.480;29.234;2023-09-18T12:37:20;84287.40;;;23.68;28.57
79142;BME280;68550;-26.480;29.234;2023-09-18T12:39:45;84286.68;;;23.64;28.45
79142;BME280;68550;-26.480;29.234;2023-09-18T12:42:11;84286.11;;;23.69;28.35
79142;BME280;68550;-26.480;29.234;2023-09-18T12:44:36;84283.16;;;23.67;28.35
79142;BME280;68550;-26.480;29.234;2023-09-18T12:47:03;84285.79;;;23.64;28.40
79142;BME280;68550;-26.480;29.234;2023-09-18T12:49:30;84289.48;;;23.42;28.46
79142;BME280;68550;-26.480;29.234;2023-09-18T12:51:57;84289.56;;;23.63;28.57
79142;BME280;68550;-26.480;29.234;2023-09-18T12:54:21;84286.51;;;23.73;28.41
79142;BME280;68550;-26.480;29.234;2023-09-18T12:56:44;84281.00;;;23.68;28.48
79142;BME280;68550;-26.480;29.234;2023-09-18T12:59:10;84276.65;;;23.68;28.60
79142;BME280;68550;-26.480;29.234;2023-09-18T13:01:35;84276.59;;;23.72;28.33
79142;BME280;68550;-26.480;29.234;2023-09-18T13:04:00;84282.46;;;23.63;28.42
79142;BME280;68550;-26.480;29.234;2023-09-18T13:06:30;84280.26;;;23.73;28.36
79142;BME280;68550;-26.480;29.234;2023-09-18T13:08:52;84272.05;;;23.66;28.48
79142;BME280;68550;-26.480;29.234;2023-09-18T13:11:16;84273.61;;;23.92;28.55
79142;BME280;68550;-26.480;29.234;2023-09-18T13:13:42;84283.18;;;23.73;28.41
79142;BME280;68550;-26.480;29.234;2023-09-18T13:16:07;84278.97;;;23.67;28.53
79142;BME280;68550;-26.480;29.234;2023-09-18T13:18:32;84278.93;;;23.42;28.56
79142;BME280;68550;-26.480;29.234;2023-09-18T13:20:57;84283.16;;;23.85;28.43
79142;BME280;68550;-26.480;29.234;2023-09-18T13:23:28;84280.43;;;23.86;28.36
79142;BME280;68550;-26.480;29.234;2023-09-18T13:25:48;84283.27;;;23.76;28.38
79142;BME280;68550;-26.480;29.234;2023-09-18T13:28:14;84279.68;;;23.73;28.40
79142;BME280;68550;-26.480;29.234;2023-09-18T13:30:43;84277.59;;;23.72;28.56
79142;BME280;68550;-26.480;29.234;2023-09-18T13:33:08;84270.48;;;23.72;28.46
79142;BME280;68550;-26.480;29.234;2023-09-18T13:35:30;84276.01;;;23.80;28.27
79142;BME280;68550;-26.480;29.234;2023-09-18T13:37:55;84278.11;;;23.78;28.26